Misky — MISKY — position and weather

sailwx.info

Track history (hours):
 
Tides and Currents Weather Stations Pressure Air Temp Water Temp Dewpoint Dewpoint Depression Visibility Wind Speed Wind Dir Waves Ship Positions

Misky

Last reported at 2018-Apr-02 04:57 UTC. Time now 2018-Jun-22 22:53 UTC.
Position S 33°39' E 151°18'.
Warning: this ship's position is months out of date.

Length 10 m.

Type: Pleasure craft. MMSI: 503048460.

Date/timePositionNaut miles runAvg speedWind from/ knotsBaromVisibWave heightAir tempDewpointWater temp
2018-Apr-02 04:57S 33°39' E 151°18'2 3.7
2018-Apr-02 04:31S 33°38' E 151°17'5 5.3
2018-Apr-02 03:37S 33°33' E 151°19'4 4.3
2018-Apr-02 02:43S 33°37' E 151°18'1 5.3
2018-Apr-02 02:30S 33°38' E 151°18'1 0.0
2018-Mar-30 23:16S 33°39' E 151°18'0 0.3
2018-Mar-30 22:57S 33°39' E 151°18'0 0.0
2018-Mar-30 06:45S 33°39' E 151°18'0 0.2
2018-Mar-30 06:30S 33°39' E 151°18'1 2.8
2018-Mar-30 06:00S 33°38' E 151°18'  
2018-Mar-24 02:55S 33°49' E 151°17'1 1.4
2018-Mar-24 01:50S 33°50' E 151°16'2 5.7
2018-Mar-24 01:29S 33°48' E 151°17'  
Track history (hours):
 
Tides and Currents Weather Stations Pressure Air Temp Water Temp Dewpoint Dewpoint Depression Visibility Wind Speed Wind Dir Waves Ship Positions

Misky

Last reported at 2018-Apr-02 04:57 UTC. Time now 2018-Jun-22 22:53 UTC.
Position S 33°39' E 151°18'.
Warning: this ship's position is months out of date.

Length 10 m.

Type: Pleasure craft. MMSI: 503048460.

Date/timePositionNaut miles runAvg speedWind from/ knotsBaromVisibWave heightAir tempDewpointWater temp
2018-Apr-02 04:57S 33°39' E 151°18'2 3.7
2018-Apr-02 04:31S 33°38' E 151°17'5 5.3
2018-Apr-02 03:37S 33°33' E 151°19'4 4.3
2018-Apr-02 02:43S 33°37' E 151°18'1 5.3
2018-Apr-02 02:30S 33°38' E 151°18'1 0.0
2018-Mar-30 23:16S 33°39' E 151°18'0 0.3
2018-Mar-30 22:57S 33°39' E 151°18'0 0.0
2018-Mar-30 06:45S 33°39' E 151°18'0 0.2
2018-Mar-30 06:30S 33°39' E 151°18'1 2.8
2018-Mar-30 06:00S 33°38' E 151°18'  
2018-Mar-24 02:55S 33°49' E 151°17'1 1.4
2018-Mar-24 01:50S 33°50' E 151°16'2 5.7
2018-Mar-24 01:29S 33°48' E 151°17'  

Dump ship's entire track history